sensor_id;sensor_type;location;lat;lon;timestamp;P1;durP1;ratioP1;P2;durP2;ratioP2
41217;SDS011;26950;50.960;7.138;2023-05-10T00:01:25;6.17;;;4.73;;
41217;SDS011;26950;50.960;7.138;2023-05-10T00:03:51;4.80;;;4.23;;
41217;SDS011;26950;50.960;7.138;2023-05-10T00:06:17;5.73;;;4.50;;
41217;SDS011;26950;50.960;7.138;2023-05-10T00:08:44;6.43;;;4.97;;
41217;SDS011;26950;50.960;7.138;2023-05-10T00:11:11;5.67;;;5.07;;
41217;SDS011;26950;50.960;7.138;2023-05-10T00:13:39;8.07;;;5.40;;
41217;SDS011;26950;50.960;7.138;2023-05-10T00:16:06;5.73;;;4.40;;
41217;SDS011;26950;50.960;7.138;2023-05-10T00:18:32;5.30;;;4.67;;
41217;SDS011;26950;50.960;7.138;2023-05-10T00:20:59;5.37;;;4.67;;
41217;SDS011;26950;50.960;7.138;2023-05-10T00:23:25;6.57;;;4.90;;
41217;SDS011;26950;50.960;7.138;2023-05-10T00:25:51;7.87;;;5.10;;
41217;SDS011;26950;50.960;7.138;2023-05-10T00:28:18;6.33;;;5.17;;
41217;SDS011;26950;50.960;7.138;2023-05-10T00:30:46;6.17;;;5.33;;
41217;SDS011;26950;50.960;7.138;2023-05-10T00:33:12;7.20;;;5.30;;
41217;SDS011;26950;50.960;7.138;2023-05-10T00:35:39;7.13;;;5.40;;
41217;SDS011;26950;50.960;7.138;2023-05-10T00:38:05;7.47;;;5.90;;
41217;SDS011;26950;50.960;7.138;2023-05-10T00:40:32;8.03;;;6.00;;
41217;SDS011;26950;50.960;7.138;2023-05-10T00:42:59;8.00;;;5.33;;
41217;SDS011;26950;50.960;7.138;2023-05-10T00:45:26;10.37;;;6.10;;
41217;SDS011;26950;50.960;7.138;2023-05-10T00:47:54;8.53;;;6.00;;
41217;SDS011;26950;50.960;7.138;2023-05-10T00:50:21;7.37;;;5.67;;
41217;SDS011;26950;50.960;7.138;2023-05-10T00:52:47;9.03;;;6.13;;
41217;SDS011;26950;50.960;7.138;2023-05-10T00:55:14;8.10;;;6.03;;
41217;SDS011;26950;50.960;7.138;2023-05-10T00:57:41;7.37;;;5.90;;
41217;SDS011;26950;50.960;7.138;2023-05-10T01:00:08;10.83;;;6.67;;
41217;SDS011;26950;50.960;7.138;2023-05-10T01:02:36;8.70;;;6.33;;
41217;SDS011;26950;50.960;7.138;2023-05-10T01:05:04;8.63;;;6.37;;
41217;SDS011;26950;50.960;7.138;2023-05-10T01:07:31;8.27;;;6.50;;
41217;SDS011;26950;50.960;7.138;2023-05-10T01:09:58;10.10;;;7.17;;
41217;SDS011;26950;50.960;7.138;2023-05-10T01:12:24;9.93;;;6.50;;
41217;SDS011;26950;50.960;7.138;2023-05-10T01:14:51;8.97;;;7.20;;
41217;SDS011;26950;50.960;7.138;2023-05-10T01:17:18;9.30;;;7.33;;
41217;SDS011;26950;50.960;7.138;2023-05-10T01:19:46;9.97;;;7.80;;
41217;SDS011;26950;50.960;7.138;2023-05-10T01:22:18;10.43;;;7.88;;
41217;SDS011;26950;50.960;7.138;2023-05-10T01:25:02;9.77;;;7.63;;
41217;SDS011;26950;50.960;7.138;2023-05-10T01:27:53;10.90;;;8.33;;
41217;SDS011;26950;50.960;7.138;2023-05-10T01:33:40;11.95;;;8.60;;
41217;SDS011;26950;50.960;7.138;2023-05-10T01:36:19;12.65;;;8.93;;
41217;SDS011;26950;50.960;7.138;2023-05-10T01:38:51;11.73;;;8.83;;
41217;SDS011;26950;50.960;7.138;2023-05-10T01:41:24;13.40;;;8.97;;
41217;SDS011;26950;50.960;7.138;2023-05-10T01:43:57;12.90;;;9.37;;
41217;SDS011;26950;50.960;7.138;2023-05-10T01:46:28;14.90;;;9.50;;
41217;SDS011;26950;50.960;7.138;2023-05-10T01:49:00;12.77;;;9.43;;
41217;SDS011;26950;50.960;7.138;2023-05-10T01:51:31;13.87;;;9.80;;
41217;SDS011;26950;50.960;7.138;2023-05-10T01:54:02;14.43;;;9.70;;
41217;SDS011;26950;50.960;7.138;2023-05-10T01:56:32;13.60;;;10.00;;
41217;SDS011;26950;50.960;7.138;2023-05-10T01:59:01;15.23;;;10.30;;
41217;SDS011;26950;50.960;7.138;2023-05-10T02:01:34;17.83;;;10.33;;
41217;SDS011;26950;50.960;7.138;2023-05-10T02:04:05;14.90;;;10.47;;
41217;SDS011;26950;50.960;7.138;2023-05-10T02:06:33;15.23;;;10.03;;
41217;SDS011;26950;50.960;7.138;2023-05-10T02:09:00;14.10;;;10.33;;
41217;SDS011;26950;50.960;7.138;2023-05-10T02:11:28;14.70;;;10.33;;
41217;SDS011;26950;50.960;7.138;2023-05-10T02:13:55;13.77;;;9.87;;
41217;SDS011;26950;50.960;7.138;2023-05-10T02:16:25;14.27;;;10.60;;
41217;SDS011;26950;50.960;7.138;2023-05-10T02:18:53;14.07;;;9.73;;
41217;SDS011;26950;50.960;7.138;2023-05-10T02:21:21;13.20;;;9.93;;
41217;SDS011;26950;50.960;7.138;2023-05-10T02:23:48;10.87;;;7.83;;
41217;SDS011;26950;50.960;7.138;2023-05-10T02:26:18;13.90;;;6.67;;
41217;SDS011;26950;50.960;7.138;2023-05-10T02:28:47;8.83;;;6.70;;
41217;SDS011;26950;50.960;7.138;2023-05-10T02:31:15;8.37;;;6.30;;
41217;SDS011;26950;50.960;7.138;2023-05-10T02:33:43;9.07;;;6.13;;
41217;SDS011;26950;50.960;7.138;2023-05-10T02:36:11;7.47;;;5.93;;
41217;SDS011;26950;50.960;7.138;2023-05-10T02:38:40;9.03;;;6.50;;
41217;SDS011;26950;50.960;7.138;2023-05-10T02:41:07;8.53;;;5.77;;
41217;SDS011;26950;50.960;7.138;2023-05-10T02:43:36;10.20;;;5.73;;
41217;SDS011;26950;50.960;7.138;2023-05-10T02:46:05;9.17;;;6.07;;
41217;SDS011;26950;50.960;7.138;2023-05-10T02:48:31;9.20;;;5.90;;
41217;SDS011;26950;50.960;7.138;2023-05-10T02:51:00;8.63;;;5.90;;
41217;SDS011;26950;50.960;7.138;2023-05-10T02:53:31;8.37;;;5.77;;
41217;SDS011;26950;50.960;7.138;2023-05-10T02:56:02;8.63;;;5.93;;
41217;SDS011;26950;50.960;7.138;2023-05-10T02:58:32;7.97;;;5.87;;
41217;SDS011;26950;50.960;7.138;2023-05-10T03:00:59;8.50;;;6.20;;
41217;SDS011;26950;50.960;7.138;2023-05-10T03:03:25;9.70;;;5.93;;
41217;SDS011;26950;50.960;7.138;2023-05-10T03:05:52;11.57;;;6.03;;
41217;SDS011;26950;50.960;7.138;2023-05-10T03:08:20;8.83;;;5.90;;
41217;SDS011;26950;50.960;7.138;2023-05-10T03:10:50;11.87;;;6.00;;
41217;SDS011;26950;50.960;7.138;2023-05-10T03:13:28;9.47;;;6.20;;
41217;SDS011;26950;50.960;7.138;2023-05-10T03:16:03;9.30;;;6.07;;
41217;SDS011;26950;50.960;7.138;2023-05-10T03:18:37;12.40;;;5.90;;
41217;SDS011;26950;50.960;7.138;2023-05-10T03:21:09;8.40;;;6.00;;
41217;SDS011;26950;50.960;7.138;2023-05-10T03:23:40;10.60;;;6.47;;
41217;SDS011;26950;50.960;7.138;2023-05-10T03:26:09;10.23;;;6.67;;
41217;SDS011;26950;50.960;7.138;2023-05-10T03:28:37;9.43;;;7.20;;
41217;SDS011;26950;50.960;7.138;2023-05-10T03:31:05;10.17;;;7.33;;
41217;SDS011;26950;50.960;7.138;2023-05-10T03:33:32;9.23;;;7.07;;
41217;SDS011;26950;50.960;7.138;2023-05-10T03:35:58;11.03;;;6.87;;
41217;SDS011;26950;50.960;7.138;2023-05-10T03:38:25;9.17;;;7.00;;
41217;SDS011;26950;50.960;7.138;2023-05-10T03:40:51;9.50;;;6.83;;
41217;SDS011;26950;50.960;7.138;2023-05-10T03:43:18;11.90;;;7.00;;
41217;SDS011;26950;50.960;7.138;2023-05-10T03:45:46;9.63;;;6.80;;
41217;SDS011;26950;50.960;7.138;2023-05-10T03:48:12;8.77;;;6.00;;
41217;SDS011;26950;50.960;7.138;2023-05-10T03:50:39;11.93;;;6.27;;
41217;SDS011;26950;50.960;7.138;2023-05-10T03:53:06;8.48;;;6.10;;
41217;SDS011;26950;50.960;7.138;2023-05-10T03:55:32;11.83;;;6.53;;
41217;SDS011;26950;50.960;7.138;2023-05-10T03:58:01;8.82;;;5.80;;
41217;SDS011;26950;50.960;7.138;2023-05-10T04:00:27;9.07;;;5.60;;
41217;SDS011;26950;50.960;7.138;2023-05-10T04:02:55;9.93;;;6.00;;
41217;SDS011;26950;50.960;7.138;2023-05-10T04:05:21;8.83;;;5.97;;
41217;SDS011;26950;50.960;7.138;2023-05-10T04:07:48;12.40;;;5.90;;
41217;SDS011;26950;50.960;7.138;2023-05-10T04:10:16;8.15;;;5.95;;
41217;SDS011;26950;50.960;7.138;2023-05-10T04:12:42;8.95;;;5.45;;
41217;SDS011;26950;50.960;7.138;2023-05-10T04:15:09;9.65;;;6.20;;
41217;SDS011;26950;50.960;7.138;2023-05-10T04:17:35;11.15;;;5.88;;
41217;SDS011;26950;50.960;7.138;2023-05-10T04:20:04;9.82;;;6.05;;
41217;SDS011;26950;50.960;7.138;2023-05-10T04:22:32;8.70;;;5.65;;
41217;SDS011;26950;50.960;7.138;2023-05-10T04:24:58;11.30;;;5.83;;
41217;SDS011;26950;50.960;7.138;2023-05-10T04:27:25;8.80;;;6.20;;
41217;SDS011;26950;50.960;7.138;2023-05-10T04:29:52;7.90;;;6.27;;
41217;SDS011;26950;50.960;7.138;2023-05-10T04:32:18;9.43;;;6.10;;
41217;SDS011;26950;50.960;7.138;2023-05-10T04:34:45;10.97;;;6.20;;
41217;SDS011;26950;50.960;7.138;2023-05-10T04:37:13;9.83;;;6.20;;
41217;SDS011;26950;50.960;7.138;2023-05-10T04:39:39;8.57;;;5.80;;
41217;SDS011;26950;50.960;7.138;2023-05-10T04:42:06;9.13;;;5.43;;
41217;SDS011;26950;50.960;7.138;2023-05-10T04:44:32;7.93;;;6.27;;
41217;SDS011;26950;50.960;7.138;2023-05-10T04:46:59;10.73;;;6.33;;
41217;SDS011;26950;50.960;7.138;2023-05-10T04:49:27;12.63;;;7.40;;
41217;SDS011;26950;50.960;7.138;2023-05-10T04:51:53;9.77;;;7.03;;
41217;SDS011;26950;50.960;7.138;2023-05-10T04:54:21;10.80;;;6.70;;
41217;SDS011;26950;50.960;7.138;2023-05-10T04:56:48;11.80;;;7.13;;
41217;SDS011;26950;50.960;7.138;2023-05-10T04:59:14;9.43;;;6.37;;
41217;SDS011;26950;50.960;7.138;2023-05-10T05:01:41;11.33;;;7.00;;
41217;SDS011;26950;50.960;7.138;2023-05-10T05:04:07;8.83;;;6.63;;
41217;SDS011;26950;50.960;7.138;2023-05-10T05:06:34;9.30;;;6.73;;
41217;SDS011;26950;50.960;7.138;2023-05-10T05:09:00;10.03;;;7.10;;
41217;SDS011;26950;50.960;7.138;2023-05-10T05:11:28;10.63;;;7.80;;
41217;SDS011;26950;50.960;7.138;2023-05-10T05:13:55;12.37;;;8.37;;
41217;SDS011;26950;50.960;7.138;2023-05-10T05:16:23;14.97;;;8.57;;
41217;SDS011;26950;50.960;7.138;2023-05-10T05:18:50;16.07;;;10.17;;
41217;SDS011;26950;50.960;7.138;2023-05-10T05:21:17;14.63;;;10.07;;
41217;SDS011;26950;50.960;7.138;2023-05-10T05:23:44;14.53;;;9.60;;
41217;SDS011;26950;50.960;7.138;2023-05-10T05:26:11;18.87;;;10.90;;
41217;SDS011;26950;50.960;7.138;2023-05-10T05:28:38;14.57;;;10.43;;
41217;SDS011;26950;50.960;7.138;2023-05-10T05:31:05;15.70;;;10.67;;
41217;SDS011;26950;50.960;7.138;2023-05-10T05:33:32;15.40;;;10.50;;
41217;SDS011;26950;50.960;7.138;2023-05-10T05:36:00;20.27;;;11.27;;
41217;SDS011;26950;50.960;7.138;2023-05-10T05:38:29;16.53;;;11.03;;
41217;SDS011;26950;50.960;7.138;2023-05-10T05:40:56;16.90;;;10.90;;
41217;SDS011;26950;50.960;7.138;2023-05-10T05:43:23;19.67;;;11.37;;
41217;SDS011;26950;50.960;7.138;2023-05-10T05:45:51;19.10;;;10.43;;
41217;SDS011;26950;50.960;7.138;2023-05-10T05:48:18;20.30;;;10.70;;
41217;SDS011;26950;50.960;7.138;2023-05-10T05:50:44;19.27;;;10.97;;
41217;SDS011;26950;50.960;7.138;2023-05-10T05:53:11;16.67;;;9.97;;
41217;SDS011;26950;50.960;7.138;2023-05-10T05:55:38;18.37;;;11.10;;
41217;SDS011;26950;50.960;7.138;2023-05-10T05:58:04;17.57;;;9.83;;
41217;SDS011;26950;50.960;7.138;2023-05-10T06:00:31;16.80;;;9.90;;
41217;SDS011;26950;50.960;7.138;2023-05-10T06:02:59;18.23;;;10.30;;
41217;SDS011;26950;50.960;7.138;2023-05-10T06:05:25;15.20;;;9.90;;
41217;SDS011;26950;50.960;7.138;2023-05-10T06:07:51;17.90;;;10.23;;
41217;SDS011;26950;50.960;7.138;2023-05-10T06:10:18;17.50;;;10.30;;
41217;SDS011;26950;50.960;7.138;2023-05-10T06:12:44;15.63;;;10.83;;
41217;SDS011;26950;50.960;7.138;2023-05-10T06:15:11;19.43;;;11.23;;
41217;SDS011;26950;50.960;7.138;2023-05-10T06:17:38;15.70;;;10.23;;
41217;SDS011;26950;50.960;7.138;2023-05-10T06:20:07;21.53;;;11.13;;
41217;SDS011;26950;50.960;7.138;2023-05-10T06:22:34;17.40;;;10.50;;
41217;SDS011;26950;50.960;7.138;2023-05-10T06:25:01;17.90;;;9.60;;
41217;SDS011;26950;50.960;7.138;2023-05-10T06:27:27;20.77;;;9.97;;
41217;SDS011;26950;50.960;7.138;2023-05-10T06:29:54;20.27;;;9.30;;
41217;SDS011;26950;50.960;7.138;2023-05-10T06:32:20;16.87;;;9.37;;
41217;SDS011;26950;50.960;7.138;2023-05-10T06:34:47;21.03;;;9.17;;
41217;SDS011;26950;50.960;7.138;2023-05-10T06:37:15;18.20;;;9.80;;
41217;SDS011;26950;50.960;7.138;2023-05-10T06:39:41;22.13;;;10.03;;
41217;SDS011;26950;50.960;7.138;2023-05-10T06:42:08;20.23;;;9.37;;
41217;SDS011;26950;50.960;7.138;2023-05-10T06:44:34;17.93;;;9.80;;
41217;SDS011;26950;50.960;7.138;2023-05-10T06:47:01;17.10;;;9.53;;
41217;SDS011;26950;50.960;7.138;2023-05-10T06:49:27;17.60;;;10.10;;
41217;SDS011;26950;50.960;7.138;2023-05-10T06:51:55;20.87;;;10.10;;
41217;SDS011;26950;50.960;7.138;2023-05-10T06:54:23;18.07;;;9.20;;
41217;SDS011;26950;50.960;7.138;2023-05-10T06:56:49;18.53;;;9.27;;
41217;SDS011;26950;50.960;7.138;2023-05-10T06:59:16;16.00;;;9.50;;
41217;SDS011;26950;50.960;7.138;2023-05-10T07:01:44;16.07;;;9.60;;
41217;SDS011;26950;50.960;7.138;2023-05-10T07:04:10;17.20;;;9.63;;
41217;SDS011;26950;50.960;7.138;2023-05-10T07:06:37;17.43;;;9.77;;
41217;SDS011;26950;50.960;7.138;2023-05-10T07:09:04;15.00;;;9.53;;
41217;SDS011;26950;50.960;7.138;2023-05-10T07:11:32;18.70;;;9.90;;
41217;SDS011;26950;50.960;7.138;2023-05-10T07:13:58;16.00;;;9.87;;
41217;SDS011;26950;50.960;7.138;2023-05-10T07:16:25;16.67;;;9.57;;
41217;SDS011;26950;50.960;7.138;2023-05-10T07:18:52;18.83;;;10.63;;
41217;SDS011;26950;50.960;7.138;2023-05-10T07:21:18;18.10;;;10.23;;
41217;SDS011;26950;50.960;7.138;2023-05-10T07:23:45;22.70;;;10.90;;
41217;SDS011;26950;50.960;7.138;2023-05-10T07:26:11;18.20;;;9.80;;
41217;SDS011;26950;50.960;7.138;2023-05-10T07:28:41;18.77;;;10.40;;
41217;SDS011;26950;50.960;7.138;2023-05-10T07:31:07;20.20;;;11.23;;
41217;SDS011;26950;50.960;7.138;2023-05-10T07:33:34;21.57;;;11.47;;
41217;SDS011;26950;50.960;7.138;2023-05-10T07:36:00;22.47;;;11.17;;
41217;SDS011;26950;50.960;7.138;2023-05-10T07:38:27;19.37;;;10.57;;
41217;SDS011;26950;50.960;7.138;2023-05-10T07:40:53;20.07;;;10.37;;
41217;SDS011;26950;50.960;7.138;2023-05-10T07:43:20;20.93;;;10.77;;
41217;SDS011;26950;50.960;7.138;2023-05-10T07:45:47;19.17;;;10.50;;
41217;SDS011;26950;50.960;7.138;2023-05-10T07:48:14;17.70;;;10.63;;
41217;SDS011;26950;50.960;7.138;2023-05-10T07:50:40;19.70;;;10.30;;
41217;SDS011;26950;50.960;7.138;2023-05-10T07:53:07;19.97;;;10.27;;
41217;SDS011;26950;50.960;7.138;2023-05-10T07:55:33;20.80;;;11.03;;
41217;SDS011;26950;50.960;7.138;2023-05-10T07:58:00;18.80;;;10.30;;
41217;SDS011;26950;50.960;7.138;2023-05-10T08:00:26;21.93;;;11.33;;
41217;SDS011;26950;50.960;7.138;2023-05-10T08:02:54;18.23;;;10.37;;
41217;SDS011;26950;50.960;7.138;2023-05-10T08:05:21;20.67;;;11.03;;
41217;SDS011;26950;50.960;7.138;2023-05-10T08:07:47;19.87;;;11.47;;
41217;SDS011;26950;50.960;7.138;2023-05-10T08:10:14;22.00;;;12.03;;
41217;SDS011;26950;50.960;7.138;2023-05-10T08:12:40;24.23;;;11.97;;
41217;SDS011;26950;50.960;7.138;2023-05-10T08:15:07;22.97;;;12.43;;
41217;SDS011;26950;50.960;7.138;2023-05-10T08:17:35;22.87;;;13.03;;
41217;SDS011;26950;50.960;7.138;2023-05-10T08:20:03;21.87;;;12.73;;
41217;SDS011;26950;50.960;7.138;2023-05-10T08:22:29;26.77;;;13.75;;
41217;SDS011;26950;50.960;7.138;2023-05-10T08:24:56;23.10;;;13.17;;
41217;SDS011;26950;50.960;7.138;2023-05-10T08:27:22;27.13;;;12.70;;
41217;SDS011;26950;50.960;7.138;2023-05-10T08:29:49;23.80;;;12.57;;
41217;SDS011;26950;50.960;7.138;2023-05-10T08:32:15;24.13;;;12.53;;
41217;SDS011;26950;50.960;7.138;2023-05-10T08:34:42;20.83;;;12.43;;
41217;SDS011;26950;50.960;7.138;2023-05-10T08:37:10;18.97;;;12.00;;
41217;SDS011;26950;50.960;7.138;2023-05-10T08:39:38;17.53;;;11.47;;
41217;SDS011;26950;50.960;7.138;2023-05-10T08:42:04;18.20;;;11.00;;
41217;SDS011;26950;50.960;7.138;2023-05-10T08:44:34;19.47;;;11.43;;
41217;SDS011;26950;50.960;7.138;2023-05-10T08:47:02;19.53;;;11.20;;
41217;SDS011;26950;50.960;7.138;2023-05-10T08:49:31;16.33;;;10.50;;
41217;SDS011;26950;50.960;7.138;2023-05-10T08:51:59;18.63;;;10.20;;
41217;SDS011;26950;50.960;7.138;2023-05-10T08:54:30;16.63;;;8.83;;
41217;SDS011;26950;50.960;7.138;2023-05-10T08:56:58;12.90;;;8.57;;
41217;SDS011;26950;50.960;7.138;2023-05-10T08:59:24;15.60;;;8.40;;
41217;SDS011;26950;50.960;7.138;2023-05-10T09:01:51;11.10;;;7.40;;
41217;SDS011;26950;50.960;7.138;2023-05-10T09:04:19;11.27;;;7.37;;
41217;SDS011;26950;50.960;7.138;2023-05-10T09:06:46;10.47;;;6.90;;
41217;SDS011;26950;50.960;7.138;2023-05-10T09:09:13;11.47;;;7.27;;
41217;SDS011;26950;50.960;7.138;2023-05-10T09:11:42;13.50;;;7.40;;
41217;SDS011;26950;50.960;7.138;2023-05-10T09:14:09;10.03;;;6.27;;
41217;SDS011;26950;50.960;7.138;2023-05-10T09:16:37;11.70;;;6.80;;
41217;SDS011;26950;50.960;7.138;2023-05-10T09:19:03;10.43;;;6.80;;
41217;SDS011;26950;50.960;7.138;2023-05-10T09:21:30;11.57;;;7.00;;
41217;SDS011;26950;50.960;7.138;2023-05-10T09:23:57;12.53;;;7.43;;
41217;SDS011;26950;50.960;7.138;2023-05-10T09:26:29;11.97;;;8.03;;
41217;SDS011;26950;50.960;7.138;2023-05-10T09:28:58;12.40;;;8.20;;
41217;SDS011;26950;50.960;7.138;2023-05-10T09:34:10;14.47;;;8.60;;
41217;SDS011;26950;50.960;7.138;2023-05-10T09:36:36;15.33;;;8.20;;
41217;SDS011;26950;50.960;7.138;2023-05-10T09:39:15;14.77;;;8.20;;
41217;SDS011;26950;50.960;7.138;2023-05-10T09:41:41;13.47;;;8.80;;
41217;SDS011;26950;50.960;7.138;2023-05-10T09:44:09;13.60;;;8.53;;
41217;SDS011;26950;50.960;7.138;2023-05-10T09:46:36;15.27;;;8.73;;
41217;SDS011;26950;50.960;7.138;2023-05-10T09:49:02;15.00;;;9.67;;
41217;SDS011;26950;50.960;7.138;2023-05-10T09:51:29;16.67;;;9.23;;
41217;SDS011;26950;50.960;7.138;2023-05-10T09:54:08;15.17;;;9.30;;
41217;SDS011;26950;50.960;7.138;2023-05-10T09:56:36;15.40;;;9.40;;
41217;SDS011;26950;50.960;7.138;2023-05-10T09:59:05;17.83;;;10.20;;
41217;SDS011;26950;50.960;7.138;2023-05-10T10:01:34;17.47;;;10.20;;
41217;SDS011;26950;50.960;7.138;2023-05-10T10:04:02;19.60;;;10.57;;
41217;SDS011;26950;50.960;7.138;2023-05-10T10:06:34;19.70;;;11.00;;
41217;SDS011;26950;50.960;7.138;2023-05-10T10:09:01;24.13;;;11.17;;
41217;SDS011;26950;50.960;7.138;2023-05-10T10:11:28;22.87;;;12.63;;
41217;SDS011;26950;50.960;7.138;2023-05-10T10:13:54;22.67;;;12.23;;
41217;SDS011;26950;50.960;7.138;2023-05-10T10:16:21;21.13;;;12.37;;
41217;SDS011;26950;50.960;7.138;2023-05-10T10:18:50;26.33;;;13.50;;
41217;SDS011;26950;50.960;7.138;2023-05-10T10:21:16;23.77;;;13.30;;
41217;SDS011;26950;50.960;7.138;2023-05-10T10:23:43;25.07;;;14.27;;
41217;SDS011;26950;50.960;7.138;2023-05-10T10:26:10;26.33;;;14.83;;
41217;SDS011;26950;50.960;7.138;2023-05-10T10:28:39;27.63;;;14.60;;
41217;SDS011;26950;50.960;7.138;2023-05-10T10:31:15;26.33;;;13.70;;
41217;SDS011;26950;50.960;7.138;2023-05-10T10:33:55;25.57;;;13.93;;
41217;SDS011;26950;50.960;7.138;2023-05-10T10:36:25;27.27;;;14.50;;
41217;SDS011;26950;50.960;7.138;2023-05-10T10:38:59;26.93;;;13.90;;
41217;SDS011;26950;50.960;7.138;2023-05-10T10:41:27;21.93;;;12.57;;
41217;SDS011;26950;50.960;7.138;2023-05-10T10:46:58;22.77;;;13.20;;
41217;SDS011;26950;50.960;7.138;2023-05-10T10:49:27;23.07;;;12.40;;
41217;SDS011;26950;50.960;7.138;2023-05-10T10:52:12;24.97;;;13.10;;
41217;SDS011;26950;50.960;7.138;2023-05-10T10:54:40;24.27;;;12.13;;
41217;SDS011;26950;50.960;7.138;2023-05-10T10:57:10;21.03;;;12.50;;
41217;SDS011;26950;50.960;7.138;2023-05-10T10:59:40;21.43;;;13.30;;
41217;SDS011;26950;50.960;7.138;2023-05-10T11:02:08;22.92;;;12.27;;
41217;SDS011;26950;50.960;7.138;2023-05-10T11:04:42;21.40;;;12.57;;
41217;SDS011;26950;50.960;7.138;2023-05-10T11:07:17;19.70;;;11.77;;
41217;SDS011;26950;50.960;7.138;2023-05-10T11:09:45;19.37;;;11.77;;
41217;SDS011;26950;50.960;7.138;2023-05-10T11:12:13;22.53;;;12.93;;
41217;SDS011;26950;50.960;7.138;2023-05-10T11:14:39;17.80;;;11.13;;
41217;SDS011;26950;50.960;7.138;2023-05-10T11:20:07;15.50;;;10.33;;
41217;SDS011;26950;50.960;7.138;2023-05-10T11:22:48;15.20;;;9.80;;
41217;SDS011;26950;50.960;7.138;2023-05-10T11:25:16;15.97;;;9.70;;
41217;SDS011;26950;50.960;7.138;2023-05-10T11:27:42;19.97;;;10.60;;
41217;SDS011;26950;50.960;7.138;2023-05-10T11:30:09;15.60;;;9.60;;
41217;SDS011;26950;50.960;7.138;2023-05-10T11:32:37;15.85;;;10.20;;
41217;SDS011;26950;50.960;7.138;2023-05-10T11:35:07;14.37;;;9.13;;
41217;SDS011;26950;50.960;7.138;2023-05-10T11:37:35;16.97;;;9.77;;
41217;SDS011;26950;50.960;7.138;2023-05-10T11:40:01;14.93;;;9.03;;
41217;SDS011;26950;50.960;7.138;2023-05-10T11:42:28;15.27;;;8.87;;
41217;SDS011;26950;50.960;7.138;2023-05-10T11:44:55;15.90;;;8.50;;
41217;SDS011;26950;50.960;7.138;2023-05-10T11:47:23;14.27;;;8.37;;
41217;SDS011;26950;50.960;7.138;2023-05-10T11:49:50;12.97;;;8.03;;
41217;SDS011;26950;50.960;7.138;2023-05-10T11:52:19;13.67;;;7.97;;
41217;SDS011;26950;50.960;7.138;2023-05-10T11:54:50;13.60;;;8.23;;
41217;SDS011;26950;50.960;7.138;2023-05-10T11:57:17;13.43;;;8.47;;
41217;SDS011;26950;50.960;7.138;2023-05-10T11:59:45;12.50;;;7.83;;
41217;SDS011;26950;50.960;7.138;2023-05-10T12:02:11;13.77;;;7.40;;
41217;SDS011;26950;50.960;7.138;2023-05-10T12:04:38;12.83;;;7.57;;
41217;SDS011;26950;50.960;7.138;2023-05-10T12:07:05;10.23;;;6.40;;
41217;SDS011;26950;50.960;7.138;2023-05-10T12:09:33;10.83;;;6.17;;
41217;SDS011;26950;50.960;7.138;2023-05-10T12:11:59;9.97;;;6.27;;
41217;SDS011;26950;50.960;7.138;2023-05-10T12:14:26;11.87;;;6.23;;
41217;SDS011;26950;50.960;7.138;2023-05-10T12:16:53;11.63;;;5.93;;
41217;SDS011;26950;50.960;7.138;2023-05-10T12:19:23;8.63;;;5.53;;
41217;SDS011;26950;50.960;7.138;2023-05-10T12:21:49;12.43;;;6.17;;
41217;SDS011;26950;50.960;7.138;2023-05-10T12:24:16;9.10;;;5.67;;
41217;SDS011;26950;50.960;7.138;2023-05-10T12:26:44;7.73;;;4.40;;
41217;SDS011;26950;50.960;7.138;2023-05-10T12:29:12;6.87;;;4.43;;
41217;SDS011;26950;50.960;7.138;2023-05-10T12:31:53;6.97;;;4.73;;
41217;SDS011;26950;50.960;7.138;2023-05-10T12:34:24;5.37;;;3.80;;
41217;SDS011;26950;50.960;7.138;2023-05-10T12:36:52;4.60;;;3.10;;
41217;SDS011;26950;50.960;7.138;2023-05-10T12:39:19;4.63;;;2.97;;
41217;SDS011;26950;50.960;7.138;2023-05-10T12:41:48;5.03;;;2.88;;
41217;SDS011;26950;50.960;7.138;2023-05-10T12:44:15;5.07;;;2.53;;
41217;SDS011;26950;50.960;7.138;2023-05-10T12:46:42;4.93;;;2.57;;
41217;SDS011;26950;50.960;7.138;2023-05-10T12:49:08;5.85;;;2.80;;
41217;SDS011;26950;50.960;7.138;2023-05-10T12:51:35;5.72;;;2.70;;
41217;SDS011;26950;50.960;7.138;2023-05-10T12:54:02;4.15;;;2.90;;
41217;SDS011;26950;50.960;7.138;2023-05-10T12:56:28;5.47;;;3.05;;
41217;SDS011;26950;50.960;7.138;2023-05-10T12:58:56;2.88;;;2.58;;
41217;SDS011;26950;50.960;7.138;2023-05-10T13:01:22;4.60;;;3.03;;
41217;SDS011;26950;50.960;7.138;2023-05-10T13:03:49;4.30;;;3.30;;
41217;SDS011;26950;50.960;7.138;2023-05-10T13:06:16;6.85;;;3.20;;
41217;SDS011;26950;50.960;7.138;2023-05-10T13:08:42;5.28;;;3.00;;
41217;SDS011;26950;50.960;7.138;2023-05-10T13:11:09;4.00;;;2.80;;
41217;SDS011;26950;50.960;7.138;2023-05-10T13:13:35;6.28;;;2.95;;
41217;SDS011;26950;50.960;7.138;2023-05-10T13:16:03;4.70;;;3.00;;
41217;SDS011;26950;50.960;7.138;2023-05-10T13:18:30;4.63;;;3.15;;
41217;SDS011;26950;50.960;7.138;2023-05-10T13:20:56;5.15;;;3.30;;
41217;SDS011;26950;50.960;7.138;2023-05-10T13:23:23;6.38;;;3.13;;
41217;SDS011;26950;50.960;7.138;2023-05-10T13:25:49;3.47;;;2.38;;
41217;SDS011;26950;50.960;7.138;2023-05-10T13:28:16;3.15;;;2.70;;
41217;SDS011;26950;50.960;7.138;2023-05-10T13:30:42;2.83;;;2.30;;
41217;SDS011;26950;50.960;7.138;2023-05-10T13:33:10;2.80;;;2.20;;
41217;SDS011;26950;50.960;7.138;2023-05-10T13:35:37;4.05;;;2.15;;
41217;SDS011;26950;50.960;7.138;2023-05-10T13:38:03;2.97;;;2.03;;
41217;SDS011;26950;50.960;7.138;2023-05-10T13:40:32;5.57;;;2.13;;
41217;SDS011;26950;50.960;7.138;2023-05-10T13:42:59;3.63;;;2.10;;
41217;SDS011;26950;50.960;7.138;2023-05-10T13:45:25;2.38;;;2.05;;
41217;SDS011;26950;50.960;7.138;2023-05-10T13:47:52;2.58;;;1.80;;
41217;SDS011;26950;50.960;7.138;2023-05-10T13:50:20;1.85;;;1.60;;
41217;SDS011;26950;50.960;7.138;2023-05-10T13:52:46;3.35;;;1.55;;
41217;SDS011;26950;50.960;7.138;2023-05-10T13:55:13;3.22;;;1.65;;
41217;SDS011;26950;50.960;7.138;2023-05-10T13:57:39;2.42;;;1.92;;
41217;SDS011;26950;50.960;7.138;2023-05-10T14:00:08;3.05;;;1.98;;
41217;SDS011;26950;50.960;7.138;2023-05-10T14:02:35;3.63;;;2.30;;
41217;SDS011;26950;50.960;7.138;2023-05-10T14:05:01;4.07;;;1.95;;
41217;SDS011;26950;50.960;7.138;2023-05-10T14:07:29;2.47;;;1.80;;
41217;SDS011;26950;50.960;7.138;2023-05-10T14:09:56;3.03;;;1.95;;
41217;SDS011;26950;50.960;7.138;2023-05-10T14:12:22;4.60;;;1.75;;
41217;SDS011;26950;50.960;7.138;2023-05-10T14:14:49;3.40;;;1.60;;
41217;SDS011;26950;50.960;7.138;2023-05-10T14:17:15;2.10;;;1.55;;
41217;SDS011;26950;50.960;7.138;2023-05-10T14:19:41;2.15;;;1.38;;
41217;SDS011;26950;50.960;7.138;2023-05-10T14:22:08;4.35;;;1.20;;
41217;SDS011;26950;50.960;7.138;2023-05-10T14:24:36;2.50;;;1.20;;
41217;SDS011;26950;50.960;7.138;2023-05-10T14:27:03;2.17;;;1.27;;
41217;SDS011;26950;50.960;7.138;2023-05-10T14:29:30;2.08;;;1.27;;
41217;SDS011;26950;50.960;7.138;2023-05-10T14:31:57;2.58;;;1.35;;
41217;SDS011;26950;50.960;7.138;2023-05-10T14:34:24;3.95;;;1.23;;
41217;SDS011;26950;50.960;7.138;2023-05-10T14:36:50;1.65;;;1.25;;
41217;SDS011;26950;50.960;7.138;2023-05-10T14:39:17;2.10;;;1.20;;
41217;SDS011;26950;50.960;7.138;2023-05-10T14:41:45;3.85;;;1.10;;
41217;SDS011;26950;50.960;7.138;2023-05-10T14:44:12;2.30;;;1.15;;
41217;SDS011;26950;50.960;7.138;2023-05-10T14:46:40;1.27;;;1.00;;
41217;SDS011;26950;50.960;7.138;2023-05-10T14:49:06;6.18;;;1.20;;
41217;SDS011;26950;50.960;7.138;2023-05-10T14:51:33;1.75;;;1.10;;